Time;durP1;ratioP1;P1;durP2;ratioP2;P2;SDS_P1;SDS_P2;PMS_P1;PMS_P2;Temp;Humidity;BMP_temperature;BMP_pressure;BME280_temperature;BME280_humidity;BME280_pressure;Samples;Min_cycle;Max_cycle;Signal;HPM_P1;HPM_P2
2023/09/06 00:02:17;;;;;;;0.70;0.60;;;22.00;65.40;;;;;;6193303;28;20046;-70
2023/09/06 00:05:18;;;;;;;1.10;0.77;;;22.00;65.40;;;;;;6192823;28;20101;-69
2023/09/06 00:08:18;;;;;;;1.10;0.80;;;22.00;65.40;;;;;;6193397;28;20070;-69
2023/09/06 00:11:19;;;;;;;0.90;0.60;;;22.00;65.40;;;;;;6193020;28;20038;-69
2023/09/06 00:14:20;;;;;;;0.85;0.73;;;22.00;65.40;;;;;;6192580;28;20089;-70
2023/09/06 00:17:21;;;;;;;1.00;0.75;;;22.00;65.40;;;;;;6193033;28;20066;-69
2023/09/06 00:20:22;;;;;;;0.90;0.60;;;22.00;65.40;;;;;;6194815;28;20041;-69
2023/09/06 00:23:24;;;;;;;1.00;0.60;;;22.00;65.40;;;;;;6197486;28;20465;-70
2023/09/06 00:26:26;;;;;;;0.80;0.73;;;22.00;65.40;;;;;;6196939;28;20308;-69
2023/09/06 00:29:26;;;;;;;0.60;0.60;;;22.00;65.40;;;;;;6196974;28;20288;-69
2023/09/06 00:32:27;;;;;;;0.88;0.68;;;22.00;65.40;;;;;;6197331;28;20080;-70
2023/09/06 00:35:28;;;;;;;1.30;0.70;;;22.00;65.40;;;;;;6196816;28;20401;-70
2023/09/06 00:38:28;;;;;;;1.23;0.80;;;22.00;65.40;;;;;;6197434;28;20021;-70
2023/09/06 00:41:29;;;;;;;0.60;0.55;;;22.00;65.40;;;;;;6196904;28;20034;-70
2023/09/06 00:44:30;;;;;;;0.70;0.65;;;22.00;65.40;;;;;;6196771;28;20353;-70
2023/09/06 00:47:31;;;;;;;0.52;0.50;;;22.00;65.40;;;;;;6196419;28;20025;-69
2023/09/06 00:50:35;;;;;;;1.08;0.70;;;22.00;65.40;;;;;;6196814;28;20023;-70
2023/09/06 00:53:36;;;;;;;0.70;0.63;;;22.00;65.40;;;;;;6196789;28;20516;-70
2023/09/06 00:56:39;;;;;;;1.38;0.88;;;22.00;65.30;;;;;;6196860;28;20038;-70
2023/09/06 00:59:41;;;;;;;1.02;0.90;;;22.00;65.40;;;;;;6196662;28;20022;-70
2023/09/06 01:02:42;;;;;;;0.80;0.80;;;22.00;65.30;;;;;;6196006;28;20073;-70
2023/09/06 01:05:45;;;;;;;0.70;0.60;;;22.00;65.40;;;;;;6196136;28;20400;-70
2023/09/06 01:08:55;;;;;;;0.93;0.82;;;22.10;65.40;;;;;;6196657;28;20142;-70
2023/09/06 01:11:56;;;;;;;0.70;0.63;;;22.00;65.40;;;;;;6196052;28;20397;-70
2023/09/06 01:14:57;;;;;;;1.27;0.80;;;22.00;65.30;;;;;;6195988;28;20022;-70
2023/09/06 01:18:01;;;;;;;0.93;0.75;;;22.10;65.40;;;;;;6196290;28;20076;-70
2023/09/06 01:21:09;;;;;;;0.63;0.63;;;22.00;65.30;;;;;;6196041;28;20022;-69
2023/09/06 01:24:11;;;;;;;1.05;0.75;;;22.10;65.40;;;;;;6196184;28;20037;-70
2023/09/06 01:27:12;;;;;;;1.20;0.75;;;22.00;65.30;;;;;;6195449;28;20504;-70
2023/09/06 01:30:14;;;;;;;1.00;0.88;;;22.00;65.30;;;;;;6196338;28;20027;-70
2023/09/06 01:33:16;;;;;;;0.60;0.50;;;22.00;65.30;;;;;;6194743;28;20034;-70
2023/09/06 01:36:16;;;;;;;0.60;0.60;;;22.00;65.30;;;;;;6195491;28;20073;-70
2023/09/06 01:39:17;;;;;;;0.95;0.80;;;22.10;66.40;;;;;;6195559;28;20033;-70
2023/09/06 01:42:22;;;;;;;0.90;0.80;;;22.10;65.40;;;;;;6195517;28;20030;-70
2023/09/06 01:45:22;;;;;;;1.10;0.93;;;22.10;65.40;;;;;;6195241;28;20782;-70
2023/09/06 01:48:23;;;;;;;1.40;0.90;;;22.10;65.40;;;;;;6195416;28;20034;-70
2023/09/06 01:51:24;;;;;;;1.33;0.70;;;22.10;65.40;;;;;;6195660;28;20022;-70
2023/09/06 01:54:25;;;;;;;1.33;0.90;;;22.10;65.40;;;;;;6194902;28;20041;-69
2023/09/06 01:57:25;;;;;;;0.55;0.55;;;22.10;65.40;;;;;;6195037;28;20165;-70
2023/09/06 02:00:31;;;;;;;1.35;0.75;;;22.10;65.40;;;;;;6194857;28;20473;-70
2023/09/06 02:03:33;;;;;;;1.42;1.05;;;22.10;65.90;;;;;;6210009;28;20038;-70
2023/09/06 02:06:33;;;;;;;1.05;0.70;;;22.10;65.40;;;;;;6195157;28;20042;-70
2023/09/06 02:09:34;;;;;;;1.05;0.85;;;22.10;65.40;;;;;;6194937;28;20412;-69
2023/09/06 02:12:35;;;;;;;1.33;0.95;;;22.10;65.50;;;;;;6194844;28;20133;-68
2023/09/06 02:15:35;;;;;;;1.25;0.80;;;22.10;65.40;;;;;;6194700;28;20071;-70
2023/09/06 02:18:36;;;;;;;1.00;0.90;;;22.10;65.40;;;;;;6194990;28;20384;-70
2023/09/06 02:21:38;;;;;;;1.08;0.70;;;22.10;65.40;;;;;;6194847;28;20509;-70
2023/09/06 02:24:39;;;;;;;0.75;0.70;;;22.10;65.40;;;;;;6194416;28;20034;-70
2023/09/06 02:27:43;;;;;;;1.25;0.90;;;22.00;65.30;;;;;;6194984;28;20030;-70
2023/09/06 02:30:44;;;;;;;1.02;0.90;;;22.00;66.10;;;;;;6194242;28;20026;-69
2023/09/06 02:33:44;;;;;;;0.70;0.68;;;22.00;65.30;;;;;;6194766;28;20078;-70
2023/09/06 02:36:45;;;;;;;0.77;0.70;;;22.00;65.30;;;;;;6194250;28;20057;-70
2023/09/06 02:39:48;;;;;;;0.63;0.60;;;22.00;65.30;;;;;;6194209;28;20022;-70
2023/09/06 02:42:51;;;;;;;0.77;0.77;;;22.10;65.40;;;;;;6194507;28;20397;-69
2023/09/06 02:45:54;;;;;;;0.77;0.65;;;22.10;65.40;;;;;;6193720;28;20072;-69
2023/09/06 02:48:58;;;;;;;1.40;0.90;;;22.00;65.30;;;;;;6194216;28;20080;-69
2023/09/06 02:51:59;;;;;;;0.73;0.70;;;22.10;65.30;;;;;;6194319;28;20029;-69
2023/09/06 02:55:04;;;;;;;0.80;0.70;;;22.10;65.40;;;;;;6193452;28;20026;-68
2023/09/06 02:58:05;;;;;;;1.35;1.13;;;22.00;65.30;;;;;;6193829;28;20220;-69
2023/09/06 03:01:06;;;;;;;0.90;0.80;;;22.00;65.30;;;;;;6193449;28;20041;-69
2023/09/06 03:04:07;;;;;;;1.10;0.90;;;22.10;65.40;;;;;;6194181;28;20457;-69
2023/09/06 03:07:07;;;;;;;0.95;0.73;;;22.10;65.40;;;;;;6193604;28;20030;-70
2023/09/06 03:10:09;;;;;;;0.75;0.60;;;22.10;65.40;;;;;;6193705;28;20469;-70
2023/09/06 03:13:10;;;;;;;1.77;0.80;;;22.10;65.40;;;;;;6193523;28;20501;-68
2023/09/06 03:16:14;;;;;;;2.05;0.93;;;22.10;65.40;;;;;;6193176;28;20045;-69
2023/09/06 03:19:14;;;;;;;0.95;0.85;;;22.10;65.30;;;;;;6194011;28;20058;-69
2023/09/06 03:22:15;;;;;;;1.58;1.00;;;22.10;65.40;;;;;;6192617;28;20492;-70
2023/09/06 03:25:17;;;;;;;1.35;1.00;;;22.10;65.40;;;;;;6194086;28;20054;-69
2023/09/06 03:28:18;;;;;;;1.20;0.90;;;22.10;65.30;;;;;;6193212;28;20057;-70
2023/09/06 03:31:19;;;;;;;0.95;0.85;;;22.10;65.40;;;;;;6193734;28;20140;-70
2023/09/06 03:34:21;;;;;;;1.67;0.95;;;22.10;65.40;;;;;;6193682;28;20493;-70
2023/09/06 03:37:23;;;;;;;1.05;0.80;;;22.10;65.40;;;;;;6193397;28;20255;-70
2023/09/06 03:40:25;;;;;;;0.88;0.77;;;22.10;65.30;;;;;;6193298;28;20354;-70
2023/09/06 03:43:32;;;;;;;1.17;0.70;;;22.10;65.30;;;;;;6193537;28;20555;-69
2023/09/06 03:46:34;;;;;;;0.90;0.80;;;22.10;65.30;;;;;;6192908;28;20064;-69
2023/09/06 03:49:35;;;;;;;1.10;0.80;;;22.10;65.30;;;;;;6193623;28;20026;-69
2023/09/06 03:52:36;;;;;;;1.05;0.93;;;22.10;65.30;;;;;;6193083;28;20021;-69
2023/09/06 03:55:38;;;;;;;1.27;0.80;;;22.10;65.40;;;;;;6195946;28;20034;-69
2023/09/06 03:58:40;;;;;;;1.48;0.90;;;22.10;65.30;;;;;;6197661;28;20030;-70
2023/09/06 04:01:43;;;;;;;1.35;1.08;;;22.10;65.30;;;;;;6198306;28;20026;-69
2023/09/06 04:04:44;;;;;;;0.82;0.73;;;22.10;65.40;;;;;;6198562;28;20030;-70
2023/09/06 04:07:45;;;;;;;0.60;0.60;;;22.10;65.30;;;;;;6197344;28;20014;-70
2023/09/06 04:10:46;;;;;;;0.80;0.70;;;22.10;65.40;;;;;;6197993;28;20019;-69
2023/09/06 04:13:47;;;;;;;1.15;0.93;;;22.10;65.30;;;;;;6197184;28;20057;-70
2023/09/06 04:16:48;;;;;;;0.73;0.70;;;22.10;65.40;;;;;;6197543;28;20489;-69
2023/09/06 04:19:49;;;;;;;1.42;1.00;;;22.10;65.30;;;;;;6197571;28;20607;-69
2023/09/06 04:22:51;;;;;;;0.95;0.88;;;22.10;65.30;;;;;;6197328;28;20019;-70
2023/09/06 04:25:52;;;;;;;1.13;0.90;;;22.10;65.30;;;;;;6197220;28;20024;-69
2023/09/06 04:28:52;;;;;;;1.58;1.10;;;22.10;65.30;;;;;;6197261;28;20061;-69
2023/09/06 04:31:54;;;;;;;1.30;1.00;;;22.10;65.30;;;;;;6197277;28;20636;-70
2023/09/06 04:34:54;;;;;;;0.90;0.80;;;22.10;65.30;;;;;;6197348;28;20230;-69
2023/09/06 04:37:55;;;;;;;1.00;0.90;;;22.10;65.40;;;;;;6196751;28;20040;-69
2023/09/06 04:40:55;;;;;;;0.80;0.68;;;22.10;65.40;;;;;;6197069;28;20066;-69
2023/09/06 04:43:56;;;;;;;0.95;0.85;;;22.10;65.40;;;;;;6196741;28;20042;-69
2023/09/06 04:46:57;;;;;;;1.23;1.02;;;22.10;65.50;;;;;;6196945;28;20110;-70
2023/09/06 04:49:58;;;;;;;1.05;0.95;;;22.00;65.40;;;;;;6196530;28;20444;-69
2023/09/06 04:52:59;;;;;;;1.02;0.90;;;22.10;65.50;;;;;;6189440;28;20385;-69
2023/09/06 04:56:03;;;;;;;0.80;0.80;;;22.00;65.40;;;;;;6188058;28;20113;-69
2023/09/06 04:59:04;;;;;;;1.40;1.00;;;22.00;65.40;;;;;;6194597;28;20033;-69
2023/09/06 05:02:04;;;;;;;0.77;0.77;;;22.00;65.50;;;;;;6195183;28;20512;-69
2023/09/06 05:05:05;;;;;;;2.03;1.02;;;22.00;65.50;;;;;;6198165;28;20461;-70
2023/09/06 05:08:07;;;;;;;1.25;1.00;;;22.00;65.30;;;;;;6202064;28;20034;-69
2023/09/06 05:11:07;;;;;;;1.83;1.10;;;22.00;65.30;;;;;;6195430;28;20026;-69
2023/09/06 05:14:10;;;;;;;2.20;1.58;;;22.10;65.30;;;;;;6194360;28;20054;-70
2023/09/06 05:17:10;;;;;;;3.42;1.85;;;22.10;64.70;;;;;;6193741;28;20516;-69
2023/09/06 05:20:32;;;;;;;5.25;2.22;;;22.10;64.10;;;;;;6197099;28;20022;-69
2023/09/06 05:23:35;;;;;;;3.10;1.67;;;22.00;63.80;;;;;;6194382;28;20400;-69
2023/09/06 05:26:36;;;;;;;4.72;2.70;;;22.00;64.00;;;;;;6194515;28;20121;-69
2023/09/06 05:29:37;;;;;;;6.78;3.15;;;22.00;63.70;;;;;;6196417;28;20495;-69
2023/09/06 05:32:37;;;;;;;9.82;3.55;;;22.00;63.80;;;;;;6200406;28;20054;-69
2023/09/06 05:35:38;;;;;;;4.28;2.60;;;22.00;63.60;;;;;;6194347;28;20038;-69
2023/09/06 05:38:38;;;;;;;12.48;4.15;;;22.00;63.70;;;;;;6196682;28;20031;-69
2023/09/06 05:41:39;;;;;;;6.97;2.85;;;22.00;63.70;;;;;;6210661;28;20060;-70
2023/09/06 05:44:40;;;;;;;5.13;2.65;;;22.00;64.20;;;;;;6202417;28;20049;-70
2023/09/06 05:47:40;;;;;;;4.93;2.90;;;22.00;64.40;;;;;;6207404;28;20029;-69
2023/09/06 05:50:41;;;;;;;5.90;2.45;;;22.00;64.70;;;;;;6196588;28;20018;-69
2023/09/06 05:53:41;;;;;;;3.10;2.13;;;21.90;64.80;;;;;;6199571;28;20475;-69
2023/09/06 05:56:42;;;;;;;3.47;2.22;;;22.00;65.00;;;;;;6194425;28;20034;-70
2023/09/06 05:59:42;;;;;;;3.40;2.10;;;22.00;65.10;;;;;;6193161;28;20075;-69
2023/09/06 06:02:45;;;;;;;3.58;2.28;;;22.00;65.20;;;;;;6203407;28;20520;-70
2023/09/06 06:05:45;;;;;;;5.63;2.00;;;22.00;65.20;;;;;;6195406;28;20029;-69
2023/09/06 06:08:46;;;;;;;3.97;2.15;;;21.90;65.20;;;;;;6195855;28;20057;-71
2023/09/06 06:11:47;;;;;;;2.90;1.88;;;22.00;65.70;;;;;;6193664;28;20439;-69
2023/09/06 06:14:49;;;;;;;2.75;1.80;;;21.90;65.80;;;;;;6194551;28;20060;-69
2023/09/06 06:17:49;;;;;;;2.75;1.85;;;22.00;65.60;;;;;;6194474;28;20488;-69
2023/09/06 06:20:50;;;;;;;3.28;1.83;;;22.00;65.40;;;;;;6194802;28;20046;-69
2023/09/06 06:23:50;;;;;;;2.78;1.80;;;22.00;65.30;;;;;;6202476;28;20037;-68
2023/09/06 06:26:51;;;;;;;2.53;1.50;;;22.00;65.20;;;;;;6195048;28;20018;-69
2023/09/06 06:29:52;;;;;;;3.17;1.80;;;22.00;65.30;;;;;;6201874;28;20148;-69
2023/09/06 06:32:52;;;;;;;3.05;1.70;;;22.00;66.10;;;;;;6203085;28;20076;-69
2023/09/06 06:35:53;;;;;;;1.90;1.35;;;22.00;65.40;;;;;;6194505;28;20109;-69
2023/09/06 06:38:54;;;;;;;2.53;1.60;;;22.00;65.40;;;;;;6194737;28;20026;-69
2023/09/06 06:41:55;;;;;;;2.63;1.63;;;21.90;65.60;;;;;;6202743;28;20030;-69
2023/09/06 06:44:55;;;;;;;4.20;1.67;;;21.90;65.70;;;;;;6194593;28;20054;-69
2023/09/06 06:47:56;;;;;;;2.85;1.67;;;21.90;65.70;;;;;;6194466;28;20041;-69
2023/09/06 06:50:57;;;;;;;1.80;1.40;;;21.90;65.80;;;;;;6201023;28;20351;-69
2023/09/06 06:53:57;;;;;;;2.47;1.63;;;21.90;65.80;;;;;;6194299;28;20049;-69
2023/09/06 06:56:58;;;;;;;1.83;1.40;;;21.90;65.80;;;;;;6190554;28;20042;-69
2023/09/06 07:00:00;;;;;;;2.42;1.40;;;21.90;65.80;;;;;;6194175;28;20700;-69
2023/09/06 07:03:01;;;;;;;2.50;1.80;;;21.90;65.80;;;;;;6193718;28;20496;-69
2023/09/06 07:06:02;;;;;;;2.53;1.40;;;21.90;65.80;;;;;;6194242;28;20027;-69
2023/09/06 07:09:05;;;;;;;1.55;1.17;;;21.90;65.80;;;;;;6193961;28;20022;-69
2023/09/06 07:12:06;;;;;;;2.17;1.50;;;21.90;65.80;;;;;;6194638;28;20021;-69
2023/09/06 07:15:07;;;;;;;1.45;1.20;;;21.90;65.80;;;;;;6193713;28;20026;-69
2023/09/06 07:18:09;;;;;;;2.30;1.30;;;21.90;65.90;;;;;;6193625;28;20031;-69
2023/09/06 07:21:09;;;;;;;1.90;1.40;;;21.90;65.80;;;;;;6194218;28;20505;-69
2023/09/06 07:24:13;;;;;;;2.10;1.45;;;21.90;65.80;;;;;;6193657;28;20027;-69
2023/09/06 07:27:13;;;;;;;1.45;1.20;;;21.90;65.80;;;;;;6194435;28;20033;-69
2023/09/06 07:30:14;;;;;;;1.95;1.52;;;21.90;65.80;;;;;;6196011;28;20351;-69
2023/09/06 07:33:16;;;;;;;1.85;1.50;;;21.90;65.90;;;;;;6198727;28;20104;-69
2023/09/06 07:36:17;;;;;;;2.38;1.33;;;21.90;65.90;;;;;;6198342;28;20464;-69
2023/09/06 07:39:18;;;;;;;2.92;1.50;;;21.90;65.90;;;;;;6198593;28;20034;-69
2023/09/06 07:42:19;;;;;;;2.50;1.50;;;21.90;66.00;;;;;;6198459;28;20036;-69
2023/09/06 07:45:19;;;;;;;3.05;1.80;;;21.90;65.90;;;;;;6198522;28;20026;-69
2023/09/06 07:48:20;;;;;;;1.80;1.52;;;21.90;66.00;;;;;;6198335;28;20461;-69
2023/09/06 07:51:20;;;;;;;1.70;1.25;;;21.90;66.00;;;;;;6198347;28;20042;-69
2023/09/06 07:54:23;;;;;;;1.80;1.40;;;21.90;65.90;;;;;;6198111;28;20015;-69
2023/09/06 07:57:23;;;;;;;2.10;1.65;;;21.90;66.00;;;;;;6190689;28;20046;-68
2023/09/06 08:00:25;;;;;;;2.63;1.58;;;21.90;66.00;;;;;;6197846;28;20485;-68
2023/09/06 08:03:26;;;;;;;3.13;1.42;;;21.80;65.90;;;;;;6197698;28;20023;-69
2023/09/06 08:06:27;;;;;;;2.00;1.25;;;21.90;66.00;;;;;;6198535;28;20030;-69
2023/09/06 08:09:27;;;;;;;2.13;1.63;;;21.90;66.00;;;;;;6198711;28;20026;-70
2023/09/06 08:12:28;;;;;;;1.33;1.10;;;21.90;65.90;;;;;;6197589;28;20108;-69
2023/09/06 08:15:29;;;;;;;1.77;1.30;;;21.80;65.90;;;;;;6197889;28;20027;-69
2023/09/06 08:18:30;;;;;;;2.25;1.55;;;21.80;65.80;;;;;;6197992;28;20102;-69
2023/09/06 08:21:30;;;;;;;1.13;0.90;;;21.90;65.90;;;;;;6197839;28;20062;-69
2023/09/06 08:24:31;;;;;;;2.85;1.50;;;21.90;65.90;;;;;;6197151;28;20073;-69
2023/09/06 08:27:32;;;;;;;3.38;1.50;;;21.80;65.80;;;;;;6198357;28;20041;-69
2023/09/06 08:30:33;;;;;;;2.13;1.25;;;21.90;65.80;;;;;;6196661;28;20381;-69
2023/09/06 08:33:33;;;;;;;2.55;1.48;;;21.90;65.90;;;;;;6197381;28;20033;-69
2023/09/06 08:36:34;;;;;;;1.63;1.27;;;21.90;65.90;;;;;;6196480;28;20026;-69
2023/09/06 08:39:34;;;;;;;2.42;1.55;;;21.80;65.80;;;;;;6197287;28;20061;-69
2023/09/06 08:42:36;;;;;;;3.13;1.50;;;21.90;65.80;;;;;;6196973;28;20465;-69
2023/09/06 08:45:41;;;;;;;2.25;1.40;;;21.90;65.80;;;;;;6197269;28;20045;-69
2023/09/06 08:48:44;;;;;;;1.92;1.30;;;21.90;65.80;;;;;;6196712;28;20037;-69
2023/09/06 08:51:47;;;;;;;2.05;1.35;;;21.80;65.80;;;;;;6196867;28;20033;-69
2023/09/06 08:54:50;;;;;;;2.45;1.80;;;21.80;65.80;;;;;;6196394;28;20053;-70
2023/09/06 08:57:52;;;;;;;3.45;1.65;;;21.90;65.80;;;;;;6196841;28;20030;-69
2023/09/06 09:00:54;;;;;;;4.85;2.22;;;21.90;65.80;;;;;;6196783;28;20034;-69
2023/09/06 09:03:55;;;;;;;2.53;1.67;;;21.80;65.80;;;;;;6196667;28;20541;-69
2023/09/06 09:06:57;;;;;;;2.33;1.40;;;21.80;65.80;;;;;;6196849;28;20026;-69
2023/09/06 09:10:10;;;;;;;3.67;1.60;;;21.80;65.80;;;;;;6196759;28;20034;-69
2023/09/06 09:13:15;;;;;;;2.33;1.45;;;21.80;65.80;;;;;;6196941;28;20042;-69
2023/09/06 09:16:16;;;;;;;3.28;1.80;;;21.80;65.80;;;;;;6203931;28;20030;-69
2023/09/06 09:19:17;;;;;;;3.10;1.63;;;21.80;65.80;;;;;;6196876;28;20022;-69
2023/09/06 09:22:35;;;;;;;2.47;1.50;;;21.80;65.80;;;;;;6196610;28;20061;-69
2023/09/06 09:25:36;;;;;;;2.28;1.50;;;21.80;65.80;;;;;;6191929;28;20056;-69
2023/09/06 09:28:40;;;;;;;2.70;1.80;;;21.80;65.80;;;;;;6196924;28;20072;-68
2023/09/06 09:31:40;;;;;;;3.35;1.60;;;21.80;65.90;;;;;;6203878;28;20030;-69
2023/09/06 09:34:41;;;;;;;2.10;1.30;;;21.80;65.80;;;;;;6198442;28;20026;-68
2023/09/06 09:37:50;;;;;;;3.33;1.60;;;21.80;65.80;;;;;;6197587;28;20403;-69
2023/09/06 09:41:08;;;;;;;2.67;1.60;;;21.80;65.80;;;;;;6198024;28;20026;-69
2023/09/06 09:44:13;;;;;;;2.47;1.50;;;21.80;65.80;;;;;;6195393;28;20045;-69
2023/09/06 09:47:14;;;;;;;2.35;1.40;;;21.80;65.90;;;;;;6197477;28;20014;-69
2023/09/06 09:50:16;;;;;;;2.22;1.30;;;21.80;65.80;;;;;;6198123;28;20129;-70
2023/09/06 09:53:22;;;;;;;3.65;1.40;;;21.80;65.90;;;;;;6196599;28;20131;-69
2023/09/06 09:56:23;;;;;;;3.25;1.90;;;21.80;65.80;;;;;;6197602;28;20038;-70
2023/09/06 09:59:25;;;;;;;2.78;1.75;;;21.80;65.90;;;;;;6197362;28;20088;-69
2023/09/06 10:02:27;;;;;;;2.38;1.80;;;21.80;66.00;;;;;;6197421;28;20019;-69
2023/09/06 10:05:29;;;;;;;3.55;1.73;;;21.80;65.80;;;;;;6197078;28;20042;-69
2023/09/06 10:08:33;;;;;;;2.58;1.70;;;21.80;65.80;;;;;;6197247;28;20022;-69
2023/09/06 10:11:34;;;;;;;2.55;1.60;;;21.80;66.00;;;;;;6197176;28;20034;-69
2023/09/06 10:14:38;;;;;;;3.50;1.80;;;21.80;66.00;;;;;;6196565;28;20046;-69
2023/09/06 10:17:40;;;;;;;3.63;1.80;;;21.80;65.90;;;;;;6196745;28;20500;-69
2023/09/06 10:20:42;;;;;;;2.80;1.60;;;21.80;65.80;;;;;;6196890;28;20032;-69
2023/09/06 10:23:46;;;;;;;3.97;2.00;;;21.80;65.90;;;;;;6196606;28;20023;-69
2023/09/06 10:26:48;;;;;;;2.17;1.35;;;21.80;65.90;;;;;;6196559;28;20022;-69
2023/09/06 10:29:52;;;;;;;3.20;1.70;;;21.80;65.80;;;;;;6196531;28;20029;-69
2023/09/06 10:32:54;;;;;;;2.78;1.60;;;21.80;66.00;;;;;;6196975;28;20037;-69
2023/09/06 10:36:02;;;;;;;2.75;1.48;;;21.80;65.90;;;;;;6196030;28;20216;-69
2023/09/06 10:39:04;;;;;;;3.63;1.90;;;21.80;65.90;;;;;;6196171;28;20032;-69
2023/09/06 10:42:13;;;;;;;3.25;2.00;;;21.80;65.90;;;;;;6196344;28;20035;-69
2023/09/06 10:45:14;;;;;;;5.95;2.08;;;21.80;65.80;;;;;;6195545;28;20157;-69
2023/09/06 10:48:15;;;;;;;3.00;1.90;;;21.80;65.90;;;;;;6196012;28;20367;-69
2023/09/06 10:51:18;;;;;;;2.80;1.70;;;21.80;65.90;;;;;;6195855;28;20086;-69
2023/09/06 10:54:18;;;;;;;3.17;1.85;;;21.80;65.90;;;;;;6195491;28;20035;-68
2023/09/06 10:57:19;;;;;;;2.85;1.73;;;21.80;65.90;;;;;;6195032;28;20062;-69
2023/09/06 11:00:25;;;;;;;1.95;1.48;;;21.80;65.90;;;;;;6195426;28;20041;-68
2023/09/06 11:03:31;;;;;;;2.78;1.67;;;21.80;65.90;;;;;;6195663;28;20022;-69
2023/09/06 11:06:49;;;;;;;3.78;2.15;;;21.80;65.90;;;;;;6195576;28;20034;-69
2023/09/06 11:09:50;;;;;;;2.70;1.70;;;21.80;65.90;;;;;;6195926;28;20034;-69
2023/09/06 11:12:54;;;;;;;3.67;1.98;;;21.80;65.90;;;;;;6194874;28;20116;-69
2023/09/06 11:15:55;;;;;;;2.28;1.58;;;21.80;65.90;;;;;;6195533;28;20069;-69
2023/09/06 11:18:55;;;;;;;3.50;1.75;;;21.80;65.90;;;;;;6195417;28;20105;-69
2023/09/06 11:22:10;;;;;;;3.50;1.95;;;21.80;65.90;;;;;;6195383;28;20117;-69
2023/09/06 11:25:18;;;;;;;2.83;1.70;;;21.80;65.90;;;;;;6194461;28;20489;-69
2023/09/06 11:28:19;;;;;;;2.30;1.67;;;21.80;65.90;;;;;;6195696;28;20049;-69
2023/09/06 11:31:27;;;;;;;3.17;1.63;;;21.80;65.90;;;;;;6195864;28;20025;-68
2023/09/06 11:34:30;;;;;;;3.20;1.88;;;21.80;65.90;;;;;;6196099;28;20113;-69
2023/09/06 11:37:31;;;;;;;2.95;1.77;;;21.80;65.90;;;;;;6195711;28;20061;-69
2023/09/06 11:40:34;;;;;;;2.78;1.98;;;21.80;65.90;;;;;;6194340;28;20030;-69
2023/09/06 11:43:41;;;;;;;2.88;1.70;;;21.80;65.90;;;;;;6195399;28;20034;-69
2023/09/06 11:46:43;;;;;;;2.72;1.63;;;21.80;65.80;;;;;;6194799;28;20113;-69
2023/09/06 11:49:45;;;;;;;2.65;1.70;;;21.80;65.80;;;;;;6195769;28;20031;-69
2023/09/06 11:52:48;;;;;;;3.55;1.80;;;21.80;65.90;;;;;;6196150;28;20054;-69
2023/09/06 11:55:51;;;;;;;2.38;1.60;;;21.80;65.80;;;;;;6195295;28;20030;-69
2023/09/06 11:58:54;;;;;;;2.75;1.75;;;21.80;65.80;;;;;;6195229;28;20473;-68
2023/09/06 12:02:03;;;;;;;2.47;1.60;;;21.80;65.80;;;;;;6195234;28;20031;-69
2023/09/06 12:05:11;;;;;;;3.13;1.92;;;21.80;65.80;;;;;;6195419;28;20050;-69
2023/09/06 12:08:23;;;;;;;2.65;1.55;;;21.80;65.80;;;;;;6194842;28;20027;-69
2023/09/06 12:11:25;;;;;;;3.53;1.88;;;21.80;65.90;;;;;;6195051;28;20129;-69
2023/09/06 12:14:26;;;;;;;3.30;1.63;;;21.80;65.90;;;;;;6195237;28;20050;-69
2023/09/06 12:17:29;;;;;;;2.80;1.83;;;21.80;65.90;;;;;;6198427;28;20125;-69
2023/09/06 12:20:33;;;;;;;1.98;1.45;;;21.80;65.80;;;;;;6199861;28;20034;-69
2023/09/06 12:23:35;;;;;;;2.63;1.77;;;21.80;65.90;;;;;;6199074;28;20401;-68
2023/09/06 12:26:36;;;;;;;2.38;1.60;;;21.80;65.80;;;;;;6199609;28;20096;-69
2023/09/06 12:29:36;;;;;;;2.45;1.60;;;21.80;65.80;;;;;;6199698;28;20030;-69
2023/09/06 12:32:39;;;;;;;1.92;1.23;;;21.80;65.90;;;;;;6199081;28;20033;-68
2023/09/06 12:35:40;;;;;;;4.72;2.00;;;21.80;66.00;;;;;;6199214;28;20556;-69
2023/09/06 12:38:42;;;;;;;2.90;1.52;;;21.80;65.80;;;;;;6199159;28;20023;-69
2023/09/06 12:41:42;;;;;;;2.65;1.50;;;21.80;65.80;;;;;;6199737;28;20054;-69
2023/09/06 12:44:43;;;;;;;2.55;1.55;;;21.80;65.70;;;;;;6198693;28;20048;-69
2023/09/06 12:47:43;;;;;;;2.30;1.45;;;21.80;65.70;;;;;;6198851;28;20030;-69
2023/09/06 12:50:44;;;;;;;2.13;1.30;;;21.80;65.70;;;;;;6199105;28;20053;-69
2023/09/06 12:53:45;;;;;;;3.50;1.70;;;21.80;65.70;;;;;;6198891;28;20060;-69
2023/09/06 12:56:45;;;;;;;2.65;1.50;;;21.80;65.80;;;;;;6198624;28;20105;-69
2023/09/06 12:59:46;;;;;;;3.90;1.80;;;21.80;65.80;;;;;;6198523;28;20019;-69
2023/09/06 13:02:46;;;;;;;3.10;1.60;;;21.80;65.80;;;;;;6199023;28;20022;-69
2023/09/06 13:05:48;;;;;;;2.42;1.60;;;21.80;65.80;;;;;;6198415;28;20026;-69
2023/09/06 13:08:50;;;;;;;1.90;1.30;;;21.80;65.80;;;;;;6198414;28;20038;-69
2023/09/06 13:11:51;;;;;;;2.50;1.55;;;21.80;65.80;;;;;;6198561;28;20054;-69
2023/09/06 13:14:52;;;;;;;2.55;1.38;;;21.80;65.80;;;;;;6197723;28;20046;-69
2023/09/06 13:17:53;;;;;;;3.17;1.58;;;21.80;65.80;;;;;;6198329;28;20523;-69
2023/09/06 13:20:56;;;;;;;1.98;1.30;;;21.80;65.80;;;;;;6198985;28;20050;-69
2023/09/06 13:23:57;;;;;;;2.10;1.48;;;21.80;65.80;;;;;;6198209;28;20145;-70
2023/09/06 13:26:57;;;;;;;2.47;1.48;;;21.80;65.80;;;;;;6196826;28;20085;-69
2023/09/06 13:29:58;;;;;;;1.85;1.45;;;21.80;65.80;;;;;;6198059;28;20030;-69
2023/09/06 13:32:59;;;;;;;1.98;1.42;;;21.80;65.80;;;;;;6198137;28;20037;-69
2023/09/06 13:35:59;;;;;;;2.53;1.50;;;21.80;65.80;;;;;;6198078;28;20077;-69
2023/09/06 13:39:00;;;;;;;1.63;1.20;;;21.80;65.80;;;;;;6198177;28;20508;-69
2023/09/06 13:42:00;;;;;;;2.90;1.48;;;21.80;65.80;;;;;;6197715;28;20034;-69
2023/09/06 13:45:01;;;;;;;2.58;1.30;;;21.80;65.80;;;;;;6197054;28;20109;-69
2023/09/06 13:48:02;;;;;;;2.97;1.77;;;21.80;65.80;;;;;;6198303;28;20113;-69
2023/09/06 13:51:03;;;;;;;2.22;1.42;;;21.80;65.80;;;;;;6197063;28;20066;-69
2023/09/06 13:54:05;;;;;;;2.13;1.50;;;21.80;66.70;;;;;;6198007;28;20081;-68
2023/09/06 13:57:07;;;;;;;2.60;1.48;;;21.80;65.80;;;;;;6197352;28;20065;-68
2023/09/06 14:00:11;;;;;;;1.85;1.30;;;21.80;65.90;;;;;;6197939;28;20038;-69
2023/09/06 14:03:12;;;;;;;2.40;1.47;;;21.80;65.80;;;;;;6197055;28;20523;-69
2023/09/06 14:06:12;;;;;;;1.98;1.30;;;21.80;65.90;;;;;;6197400;28;20061;-69
2023/09/06 14:09:13;;;;;;;1.98;1.48;;;21.80;65.90;;;;;;6197361;28;20026;-69
2023/09/06 14:12:13;;;;;;;2.10;1.30;;;21.80;65.90;;;;;;6196741;28;20085;-69
2023/09/06 14:15:14;;;;;;;1.77;1.20;;;21.80;65.90;;;;;;6197166;28;20037;-69
2023/09/06 14:18:15;;;;;;;2.22;1.27;;;21.80;65.90;;;;;;6196582;28;20109;-69
2023/09/06 14:21:20;;;;;;;1.65;1.23;;;21.80;65.90;;;;;;6197064;28;20018;-69
2023/09/06 14:24:21;;;;;;;2.88;1.48;;;21.80;66.70;;;;;;6196526;28;20089;-69
2023/09/06 14:27:21;;;;;;;1.77;1.20;;;21.80;65.90;;;;;;6196405;28;20042;-69
2023/09/06 14:30:22;;;;;;;1.55;1.23;;;21.80;65.90;;;;;;6196693;28;20425;-69
2023/09/06 14:33:23;;;;;;;1.80;1.42;;;21.80;65.80;;;;;;6196208;28;20030;-69
2023/09/06 14:36:24;;;;;;;1.98;1.35;;;21.80;65.90;;;;;;6196725;28;20041;-68
2023/09/06 14:39:25;;;;;;;1.77;1.38;;;21.80;65.90;;;;;;6196287;28;20430;-69
2023/09/06 14:42:29;;;;;;;2.20;1.40;;;21.80;65.90;;;;;;6196511;28;20031;-69
2023/09/06 14:45:29;;;;;;;2.10;1.27;;;21.80;65.90;;;;;;6196748;28;20092;-69
2023/09/06 14:48:31;;;;;;;2.50;1.48;;;21.80;65.90;;;;;;6195922;28;20423;-69
2023/09/06 14:51:31;;;;;;;1.73;1.15;;;21.80;65.90;;;;;;6196275;28;20027;-69
2023/09/06 14:54:32;;;;;;;2.08;1.38;;;21.80;66.40;;;;;;6195849;28;20089;-69
2023/09/06 14:57:32;;;;;;;1.50;1.20;;;21.80;65.90;;;;;;6184699;28;21515;-69
2023/09/06 15:00:33;;;;;;;1.95;1.17;;;21.80;65.90;;;;;;6186784;28;20324;-69
2023/09/06 15:03:34;;;;;;;2.67;1.48;;;21.80;65.90;;;;;;6192689;28;20022;-68
2023/09/06 15:06:35;;;;;;;2.25;1.55;;;21.80;66.20;;;;;;6201635;28;20485;-69
2023/09/06 15:09:37;;;;;;;2.63;1.20;;;21.90;66.20;;;;;;6195290;28;20069;-70
2023/09/06 15:12:42;;;;;;;2.25;1.27;;;21.90;66.80;;;;;;6197459;28;20074;-69
2023/09/06 15:15:43;;;;;;;1.98;1.38;;;21.90;66.50;;;;;;6193555;28;20030;-69
2023/09/06 15:18:44;;;;;;;1.92;1.00;;;21.90;66.50;;;;;;6194447;28;20038;-70
2023/09/06 15:21:45;;;;;;;2.58;1.10;;;22.00;66.50;;;;;;6193511;28;20030;-69
2023/09/06 15:24:46;;;;;;;7.20;1.52;;;22.00;66.70;;;;;;6192678;28;20069;-70
2023/09/06 15:27:46;;;;;;;3.92;1.30;;;22.00;66.70;;;;;;6201251;28;20035;-69
2023/09/06 15:30:49;;;;;;;2.88;1.23;;;21.90;66.60;;;;;;6191303;28;20054;-69
2023/09/06 15:33:49;;;;;;;2.75;1.45;;;21.90;66.50;;;;;;6193192;28;20034;-69
2023/09/06 15:36:50;;;;;;;4.03;1.40;;;21.90;66.50;;;;;;6209076;28;20367;-69
2023/09/06 15:39:50;;;;;;;2.75;1.40;;;21.90;66.50;;;;;;6204804;28;20492;-70
2023/09/06 15:42:52;;;;;;;1.88;1.25;;;21.90;66.50;;;;;;6197352;28;20430;-68
2023/09/06 15:45:52;;;;;;;3.03;1.40;;;21.90;66.80;;;;;;6193111;28;20469;-69
2023/09/06 15:48:53;;;;;;;8.38;1.70;;;22.00;66.60;;;;;;6192360;28;20375;-68